San Diego, California
Traffic Map
Current Weather Conditions
San Diego, California
Broken Clouds
Broken Clouds
61°
Feels Like: 61°
Wind Chill: 61° Ceiling: 3300
Heat Index: 61° Visibility: 8mi
Dew Point: 54° Wind: 17mph
Humidity: 78% Direction: 240° (WSW)
Pressure: 29.54in Gusts: 28mph
Raw Report DataKSAN 210018Z 24015G24KT 8SM SCT020 BKN033 BKN080 16/12 A2954 RMK AO2 RAE2356 VCSH P0000 T01610122
Traffic Incident Summary
Active as of:
Severity:
Category:
InformationThere was an issue retrieving the traffic information for this location. Please try a different location or try again shortly.
Advertisements
Track Severe Weather on mobile